sensor_id;sensor_type;location;lat;lon;timestamp;temperature;humidity
8103;DHT22;4094;49.948;11.574;2022-11-20T00:01:58;3.50;62.90
8103;DHT22;4094;49.948;11.574;2022-11-20T00:04:27;3.50;63.10
8103;DHT22;4094;49.948;11.574;2022-11-20T00:06:58;3.50;63.10
8103;DHT22;4094;49.948;11.574;2022-11-20T00:09:28;3.40;63.00
8103;DHT22;4094;49.948;11.574;2022-11-20T00:11:57;3.40;62.80
8103;DHT22;4094;49.948;11.574;2022-11-20T00:14:26;3.40;62.60
8103;DHT22;4094;49.948;11.574;2022-11-20T00:16:58;3.40;62.70
8103;DHT22;4094;49.948;11.574;2022-11-20T00:19:27;3.40;62.90
8103;DHT22;4094;49.948;11.574;2022-11-20T00:21:55;3.40;63.00
8103;DHT22;4094;49.948;11.574;2022-11-20T00:24:26;3.40;62.80
8103;DHT22;4094;49.948;11.574;2022-11-20T00:26:55;3.40;62.80
8103;DHT22;4094;49.948;11.574;2022-11-20T00:29:24;3.30;62.80
8103;DHT22;4094;49.948;11.574;2022-11-20T00:31:55;3.30;62.80
8103;DHT22;4094;49.948;11.574;2022-11-20T00:34:23;3.30;62.90
8103;DHT22;4094;49.948;11.574;2022-11-20T00:36:52;3.30;62.80
8103;DHT22;4094;49.948;11.574;2022-11-20T00:39:21;3.30;62.60
8103;DHT22;4094;49.948;11.574;2022-11-20T00:41:52;3.30;62.60
8103;DHT22;4094;49.948;11.574;2022-11-20T00:44:21;3.30;62.70
8103;DHT22;4094;49.948;11.574;2022-11-20T00:46:49;3.30;62.60
8103;DHT22;4094;49.948;11.574;2022-11-20T00:49:18;3.30;62.60
8103;DHT22;4094;49.948;11.574;2022-11-20T00:51:48;3.30;62.70
8103;DHT22;4094;49.948;11.574;2022-11-20T00:54:17;3.30;62.80
8103;DHT22;4094;49.948;11.574;2022-11-20T00:56:45;3.30;62.90
8103;DHT22;4094;49.948;11.574;2022-11-20T00:59:16;3.20;62.90
8103;DHT22;4094;49.948;11.574;2022-11-20T01:01:45;3.20;63.10
8103;DHT22;4094;49.948;11.574;2022-11-20T01:04:14;3.10;63.20
8103;DHT22;4094;49.948;11.574;2022-11-20T01:06:43;3.10;63.60
8103;DHT22;4094;49.948;11.574;2022-11-20T01:09:13;3.00;63.80
8103;DHT22;4094;49.948;11.574;2022-11-20T01:11:44;3.10;64.20
8103;DHT22;4094;49.948;11.574;2022-11-20T01:14:15;3.00;64.30
8103;DHT22;4094;49.948;11.574;2022-11-20T01:16:47;3.00;64.40
8103;DHT22;4094;49.948;11.574;2022-11-20T01:19:22;3.00;64.50
8103;DHT22;4094;49.948;11.574;2022-11-20T01:21:54;3.00;64.50
8103;DHT22;4094;49.948;11.574;2022-11-20T01:24:23;3.10;64.70
8103;DHT22;4094;49.948;11.574;2022-11-20T01:26:52;3.00;64.60
8103;DHT22;4094;49.948;11.574;2022-11-20T01:29:22;3.10;64.60
8103;DHT22;4094;49.948;11.574;2022-11-20T01:31:53;3.10;64.50
8103;DHT22;4094;49.948;11.574;2022-11-20T01:34:22;3.10;64.10
8103;DHT22;4094;49.948;11.574;2022-11-20T01:36:52;3.10;63.90
8103;DHT22;4094;49.948;11.574;2022-11-20T01:39:22;3.10;64.10
8103;DHT22;4094;49.948;11.574;2022-11-20T01:41:53;3.10;64.20
8103;DHT22;4094;49.948;11.574;2022-11-20T01:44:58;3.10;64.20
8103;DHT22;4094;49.948;11.574;2022-11-20T01:47:31;3.10;64.30
8103;DHT22;4094;49.948;11.574;2022-11-20T01:50:06;3.10;64.40
8103;DHT22;4094;49.948;11.574;2022-11-20T01:52:42;3.10;64.50
8103;DHT22;4094;49.948;11.574;2022-11-20T01:55:17;3.20;64.50
8103;DHT22;4094;49.948;11.574;2022-11-20T01:57:48;3.20;64.40
8103;DHT22;4094;49.948;11.574;2022-11-20T02:00:19;3.20;64.40
8103;DHT22;4094;49.948;11.574;2022-11-20T02:02:53;3.20;64.40
8103;DHT22;4094;49.948;11.574;2022-11-20T02:05:27;3.20;64.40
8103;DHT22;4094;49.948;11.574;2022-11-20T02:07:58;3.20;64.50
8103;DHT22;4094;49.948;11.574;2022-11-20T02:10:28;3.20;64.40
8103;DHT22;4094;49.948;11.574;2022-11-20T02:12:58;3.20;64.40
8103;DHT22;4094;49.948;11.574;2022-11-20T02:15:45;3.20;64.40
8103;DHT22;4094;49.948;11.574;2022-11-20T02:18:18;3.20;64.30
8103;DHT22;4094;49.948;11.574;2022-11-20T02:20:50;3.30;64.30
8103;DHT22;4094;49.948;11.574;2022-11-20T02:23:26;3.30;64.20
8103;DHT22;4094;49.948;11.574;2022-11-20T02:25:58;3.30;64.20
8103;DHT22;4094;49.948;11.574;2022-11-20T02:28:29;3.30;64.10
8103;DHT22;4094;49.948;11.574;2022-11-20T02:30:58;3.30;64.00
8103;DHT22;4094;49.948;11.574;2022-11-20T02:33:27;3.30;64.00
8103;DHT22;4094;49.948;11.574;2022-11-20T02:35:56;3.30;64.10
8103;DHT22;4094;49.948;11.574;2022-11-20T02:38:25;3.30;64.10
8103;DHT22;4094;49.948;11.574;2022-11-20T02:40:54;3.30;64.10
8103;DHT22;4094;49.948;11.574;2022-11-20T02:43:25;3.30;64.20
8103;DHT22;4094;49.948;11.574;2022-11-20T02:45:53;3.30;64.00
8103;DHT22;4094;49.948;11.574;2022-11-20T02:48:22;3.30;63.90
8103;DHT22;4094;49.948;11.574;2022-11-20T02:50:52;3.30;64.00
8103;DHT22;4094;49.948;11.574;2022-11-20T02:53:21;3.30;64.10
8103;DHT22;4094;49.948;11.574;2022-11-20T02:55:49;3.30;64.10
8103;DHT22;4094;49.948;11.574;2022-11-20T02:58:18;3.30;64.30
8103;DHT22;4094;49.948;11.574;2022-11-20T03:00:49;3.30;64.30
8103;DHT22;4094;49.948;11.574;2022-11-20T03:03:18;3.30;64.20
8103;DHT22;4094;49.948;11.574;2022-11-20T03:05:46;3.30;64.40
8103;DHT22;4094;49.948;11.574;2022-11-20T03:08:15;3.30;64.50
8103;DHT22;4094;49.948;11.574;2022-11-20T03:10:44;3.30;64.50
8103;DHT22;4094;49.948;11.574;2022-11-20T03:13:13;3.30;64.40
8103;DHT22;4094;49.948;11.574;2022-11-20T03:15:42;3.30;64.30
8103;DHT22;4094;49.948;11.574;2022-11-20T03:18:13;3.30;64.40
8103;DHT22;4094;49.948;11.574;2022-11-20T03:20:42;3.30;64.50
8103;DHT22;4094;49.948;11.574;2022-11-20T03:23:11;3.40;64.40
8103;DHT22;4094;49.948;11.574;2022-11-20T03:25:40;3.40;64.30
8103;DHT22;4094;49.948;11.574;2022-11-20T03:28:09;3.30;64.10
8103;DHT22;4094;49.948;11.574;2022-11-20T03:30:37;3.40;64.20
8103;DHT22;4094;49.948;11.574;2022-11-20T03:33:06;3.40;64.40
8103;DHT22;4094;49.948;11.574;2022-11-20T03:35:37;3.30;64.40
8103;DHT22;4094;49.948;11.574;2022-11-20T03:38:06;3.30;64.40
8103;DHT22;4094;49.948;11.574;2022-11-20T03:40:35;3.40;64.50
8103;DHT22;4094;49.948;11.574;2022-11-20T03:43:04;3.30;64.50
8103;DHT22;4094;49.948;11.574;2022-11-20T03:45:32;3.40;64.60
8103;DHT22;4094;49.948;11.574;2022-11-20T03:48:01;3.40;64.50
8103;DHT22;4094;49.948;11.574;2022-11-20T03:50:30;3.40;64.40
8103;DHT22;4094;49.948;11.574;2022-11-20T03:53:00;3.40;64.50
8103;DHT22;4094;49.948;11.574;2022-11-20T03:55:29;3.40;64.40
8103;DHT22;4094;49.948;11.574;2022-11-20T03:57:58;3.40;64.40
8103;DHT22;4094;49.948;11.574;2022-11-20T04:00:27;3.40;64.40
8103;DHT22;4094;49.948;11.574;2022-11-20T04:02:57;3.40;64.30
8103;DHT22;4094;49.948;11.574;2022-11-20T04:05:27;3.40;64.20
8103;DHT22;4094;49.948;11.574;2022-11-20T04:07:56;3.40;64.30
8103;DHT22;4094;49.948;11.574;2022-11-20T04:10:27;3.40;64.30
8103;DHT22;4094;49.948;11.574;2022-11-20T04:12:56;3.40;64.40
8103;DHT22;4094;49.948;11.574;2022-11-20T04:15:27;3.40;64.60
8103;DHT22;4094;49.948;11.574;2022-11-20T04:17:58;3.40;64.90
8103;DHT22;4094;49.948;11.574;2022-11-20T04:20:27;3.40;65.00
8103;DHT22;4094;49.948;11.574;2022-11-20T04:22:56;3.40;65.20
8103;DHT22;4094;49.948;11.574;2022-11-20T04:25:26;3.40;65.30
8103;DHT22;4094;49.948;11.574;2022-11-20T04:27:55;3.50;65.20
8103;DHT22;4094;49.948;11.574;2022-11-20T04:30:24;3.50;65.00
8103;DHT22;4094;49.948;11.574;2022-11-20T04:32:53;3.50;64.70
8103;DHT22;4094;49.948;11.574;2022-11-20T04:35:22;3.50;64.80
8103;DHT22;4094;49.948;11.574;2022-11-20T04:37:51;3.60;64.90
8103;DHT22;4094;49.948;11.574;2022-11-20T04:40:20;3.60;65.10
8103;DHT22;4094;49.948;11.574;2022-11-20T04:42:50;3.60;65.20
8103;DHT22;4094;49.948;11.574;2022-11-20T04:45:20;3.60;65.20
8103;DHT22;4094;49.948;11.574;2022-11-20T04:47:49;3.60;65.00
8103;DHT22;4094;49.948;11.574;2022-11-20T04:50:17;3.60;65.10
8103;DHT22;4094;49.948;11.574;2022-11-20T04:52:46;3.70;65.20
8103;DHT22;4094;49.948;11.574;2022-11-20T04:55:15;3.60;65.20
8103;DHT22;4094;49.948;11.574;2022-11-20T04:57:44;3.70;65.20
8103;DHT22;4094;49.948;11.574;2022-11-20T05:00:16;3.70;65.20
8103;DHT22;4094;49.948;11.574;2022-11-20T05:02:45;3.70;65.30
8103;DHT22;4094;49.948;11.574;2022-11-20T05:05:14;3.70;65.30
8103;DHT22;4094;49.948;11.574;2022-11-20T05:07:43;3.70;65.30
8103;DHT22;4094;49.948;11.574;2022-11-20T05:10:14;3.70;65.40
8103;DHT22;4094;49.948;11.574;2022-11-20T05:12:43;3.70;65.50
8103;DHT22;4094;49.948;11.574;2022-11-20T05:15:12;3.70;65.50
8103;DHT22;4094;49.948;11.574;2022-11-20T05:17:47;3.80;65.70
8103;DHT22;4094;49.948;11.574;2022-11-20T05:20:16;3.80;65.70
8103;DHT22;4094;49.948;11.574;2022-11-20T05:22:45;3.80;65.50
8103;DHT22;4094;49.948;11.574;2022-11-20T05:25:14;3.90;65.60
8103;DHT22;4094;49.948;11.574;2022-11-20T05:27:43;3.80;66.30
8103;DHT22;4094;49.948;11.574;2022-11-20T05:30:13;3.80;65.50
8103;DHT22;4094;49.948;11.574;2022-11-20T05:32:43;3.80;65.50
8103;DHT22;4094;49.948;11.574;2022-11-20T05:35:13;3.90;65.50
8103;DHT22;4094;49.948;11.574;2022-11-20T05:37:41;3.90;65.50
8103;DHT22;4094;49.948;11.574;2022-11-20T05:40:11;3.90;65.50
8103;DHT22;4094;49.948;11.574;2022-11-20T05:42:41;3.90;65.60
8103;DHT22;4094;49.948;11.574;2022-11-20T05:45:11;3.90;65.70
8103;DHT22;4094;49.948;11.574;2022-11-20T05:47:40;3.90;65.80
8103;DHT22;4094;49.948;11.574;2022-11-20T05:50:10;3.90;65.80
8103;DHT22;4094;49.948;11.574;2022-11-20T05:52:39;3.90;66.00
8103;DHT22;4094;49.948;11.574;2022-11-20T05:55:10;3.90;66.00
8103;DHT22;4094;49.948;11.574;2022-11-20T05:57:39;3.90;66.10
8103;DHT22;4094;49.948;11.574;2022-11-20T06:00:10;3.90;66.00
8103;DHT22;4094;49.948;11.574;2022-11-20T06:02:39;3.90;66.10
8103;DHT22;4094;49.948;11.574;2022-11-20T06:05:09;3.90;66.20
8103;DHT22;4094;49.948;11.574;2022-11-20T06:07:39;3.90;66.20
8103;DHT22;4094;49.948;11.574;2022-11-20T06:10:09;4.00;66.30
8103;DHT22;4094;49.948;11.574;2022-11-20T06:12:38;4.00;66.40
8103;DHT22;4094;49.948;11.574;2022-11-20T06:15:08;4.00;66.40
8103;DHT22;4094;49.948;11.574;2022-11-20T06:17:37;4.00;66.40
8103;DHT22;4094;49.948;11.574;2022-11-20T06:20:07;4.10;66.50
8103;DHT22;4094;49.948;11.574;2022-11-20T06:22:37;4.10;66.50
8103;DHT22;4094;49.948;11.574;2022-11-20T06:25:07;4.10;66.50
8103;DHT22;4094;49.948;11.574;2022-11-20T06:27:36;4.10;66.70
8103;DHT22;4094;49.948;11.574;2022-11-20T06:30:06;4.10;66.80
8103;DHT22;4094;49.948;11.574;2022-11-20T06:32:35;4.10;67.00
8103;DHT22;4094;49.948;11.574;2022-11-20T06:35:05;4.10;67.10
8103;DHT22;4094;49.948;11.574;2022-11-20T06:37:34;4.20;67.20
8103;DHT22;4094;49.948;11.574;2022-11-20T06:40:07;4.20;66.90
8103;DHT22;4094;49.948;11.574;2022-11-20T06:42:36;4.20;67.00
8103;DHT22;4094;49.948;11.574;2022-11-20T06:45:06;4.20;67.00
8103;DHT22;4094;49.948;11.574;2022-11-20T06:47:35;4.20;67.20
8103;DHT22;4094;49.948;11.574;2022-11-20T06:50:05;4.30;67.20
8103;DHT22;4094;49.948;11.574;2022-11-20T06:52:34;4.30;67.30
8103;DHT22;4094;49.948;11.574;2022-11-20T06:55:11;4.30;67.30
8103;DHT22;4094;49.948;11.574;2022-11-20T06:57:40;4.30;67.20
8103;DHT22;4094;49.948;11.574;2022-11-20T07:00:11;4.30;67.20
8103;DHT22;4094;49.948;11.574;2022-11-20T07:02:40;4.40;67.40
8103;DHT22;4094;49.948;11.574;2022-11-20T07:05:09;4.40;67.30
8103;DHT22;4094;49.948;11.574;2022-11-20T07:07:39;4.40;67.20
8103;DHT22;4094;49.948;11.574;2022-11-20T07:10:11;4.40;67.30
8103;DHT22;4094;49.948;11.574;2022-11-20T07:12:40;4.50;67.20
8103;DHT22;4094;49.948;11.574;2022-11-20T07:15:09;4.50;67.00
8103;DHT22;4094;49.948;11.574;2022-11-20T07:17:40;4.50;67.00
8103;DHT22;4094;49.948;11.574;2022-11-20T07:20:10;4.50;67.20
8103;DHT22;4094;49.948;11.574;2022-11-20T07:22:40;4.50;67.20
8103;DHT22;4094;49.948;11.574;2022-11-20T07:25:11;4.50;67.10
8103;DHT22;4094;49.948;11.574;2022-11-20T07:27:40;4.50;67.90
8103;DHT22;4094;49.948;11.574;2022-11-20T07:30:09;4.50;67.10
8103;DHT22;4094;49.948;11.574;2022-11-20T07:32:39;4.60;67.10
8103;DHT22;4094;49.948;11.574;2022-11-20T07:35:08;4.60;67.10
8103;DHT22;4094;49.948;11.574;2022-11-20T07:37:37;4.60;67.00
8103;DHT22;4094;49.948;11.574;2022-11-20T07:40:06;4.60;67.10
8103;DHT22;4094;49.948;11.574;2022-11-20T07:42:37;4.60;67.30
8103;DHT22;4094;49.948;11.574;2022-11-20T07:45:06;4.60;67.30
8103;DHT22;4094;49.948;11.574;2022-11-20T07:47:36;4.70;67.40
8103;DHT22;4094;49.948;11.574;2022-11-20T07:50:06;4.70;67.30
8103;DHT22;4094;49.948;11.574;2022-11-20T07:52:35;4.70;67.20
8103;DHT22;4094;49.948;11.574;2022-11-20T07:55:05;4.70;67.00
8103;DHT22;4094;49.948;11.574;2022-11-20T07:57:34;4.80;67.10
8103;DHT22;4094;49.948;11.574;2022-11-20T08:00:07;4.80;67.00
8103;DHT22;4094;49.948;11.574;2022-11-20T08:02:41;4.80;67.00
8103;DHT22;4094;49.948;11.574;2022-11-20T08:05:10;4.80;66.90
8103;DHT22;4094;49.948;11.574;2022-11-20T08:07:40;4.80;67.00
8103;DHT22;4094;49.948;11.574;2022-11-20T08:10:11;4.90;67.10
8103;DHT22;4094;49.948;11.574;2022-11-20T08:12:44;4.90;66.90
8103;DHT22;4094;49.948;11.574;2022-11-20T08:15:32;4.90;66.90
8103;DHT22;4094;49.948;11.574;2022-11-20T08:18:02;4.90;66.80
8103;DHT22;4094;49.948;11.574;2022-11-20T08:20:52;4.90;66.70
8103;DHT22;4094;49.948;11.574;2022-11-20T08:23:22;5.00;66.80
8103;DHT22;4094;49.948;11.574;2022-11-20T08:25:51;5.00;66.90
8103;DHT22;4094;49.948;11.574;2022-11-20T08:28:22;5.00;66.90
8103;DHT22;4094;49.948;11.574;2022-11-20T08:30:58;5.00;67.00
8103;DHT22;4094;49.948;11.574;2022-11-20T08:33:27;5.00;67.10
8103;DHT22;4094;49.948;11.574;2022-11-20T08:35:59;5.10;67.10
8103;DHT22;4094;49.948;11.574;2022-11-20T08:38:29;5.10;67.30
8103;DHT22;4094;49.948;11.574;2022-11-20T08:40:58;5.10;67.10
8103;DHT22;4094;49.948;11.574;2022-11-20T08:43:45;5.10;66.90
8103;DHT22;4094;49.948;11.574;2022-11-20T08:46:15;5.10;66.90
8103;DHT22;4094;49.948;11.574;2022-11-20T08:48:45;5.10;66.70
8103;DHT22;4094;49.948;11.574;2022-11-20T08:51:14;5.10;67.30
8103;DHT22;4094;49.948;11.574;2022-11-20T08:53:43;5.10;66.30
8103;DHT22;4094;49.948;11.574;2022-11-20T08:56:12;5.10;66.40
8103;DHT22;4094;49.948;11.574;2022-11-20T08:58:42;5.10;66.50
8103;DHT22;4094;49.948;11.574;2022-11-20T09:01:32;5.10;66.50
8103;DHT22;4094;49.948;11.574;2022-11-20T09:04:01;5.10;66.80
8103;DHT22;4094;49.948;11.574;2022-11-20T09:06:32;5.10;67.10
8103;DHT22;4094;49.948;11.574;2022-11-20T09:09:02;5.20;67.20
8103;DHT22;4094;49.948;11.574;2022-11-20T09:11:34;5.20;67.10
8103;DHT22;4094;49.948;11.574;2022-11-20T09:14:03;5.20;66.90
8103;DHT22;4094;49.948;11.574;2022-11-20T09:16:34;5.30;66.90
8103;DHT22;4094;49.948;11.574;2022-11-20T09:19:02;5.20;66.80
8103;DHT22;4094;49.948;11.574;2022-11-20T09:21:51;5.30;67.00
8103;DHT22;4094;49.948;11.574;2022-11-20T09:24:27;5.30;67.00
8103;DHT22;4094;49.948;11.574;2022-11-20T09:26:56;5.30;67.10
8103;DHT22;4094;49.948;11.574;2022-11-20T09:29:25;5.30;67.20
8103;DHT22;4094;49.948;11.574;2022-11-20T09:31:55;5.40;67.40
8103;DHT22;4094;49.948;11.574;2022-11-20T09:34:25;5.40;67.10
8103;DHT22;4094;49.948;11.574;2022-11-20T09:36:54;5.40;67.20
8103;DHT22;4094;49.948;11.574;2022-11-20T09:39:23;5.40;67.40
8103;DHT22;4094;49.948;11.574;2022-11-20T09:42:14;5.40;67.20
8103;DHT22;4094;49.948;11.574;2022-11-20T09:44:59;5.50;67.40
8103;DHT22;4094;49.948;11.574;2022-11-20T09:48:01;5.50;67.30
8103;DHT22;4094;49.948;11.574;2022-11-20T09:50:36;5.50;67.10
8103;DHT22;4094;49.948;11.574;2022-11-20T09:53:13;5.50;67.10
8103;DHT22;4094;49.948;11.574;2022-11-20T09:55:45;5.50;67.10
8103;DHT22;4094;49.948;11.574;2022-11-20T09:58:19;5.50;67.00
8103;DHT22;4094;49.948;11.574;2022-11-20T10:00:51;5.60;67.10
8103;DHT22;4094;49.948;11.574;2022-11-20T10:03:37;5.50;67.10
8103;DHT22;4094;49.948;11.574;2022-11-20T10:06:13;5.60;67.10
8103;DHT22;4094;49.948;11.574;2022-11-20T10:08:48;5.60;67.10
8103;DHT22;4094;49.948;11.574;2022-11-20T10:11:32;5.60;67.20
8103;DHT22;4094;49.948;11.574;2022-11-20T10:14:14;5.60;67.10
8103;DHT22;4094;49.948;11.574;2022-11-20T10:16:52;5.60;67.00
8103;DHT22;4094;49.948;11.574;2022-11-20T10:19:39;5.60;67.00
8103;DHT22;4094;49.948;11.574;2022-11-20T10:22:20;5.50;67.00
8103;DHT22;4094;49.948;11.574;2022-11-20T10:24:56;5.50;67.40
8103;DHT22;4094;49.948;11.574;2022-11-20T10:27:47;5.50;67.60
8103;DHT22;4094;49.948;11.574;2022-11-20T10:30:21;5.50;67.70
8103;DHT22;4094;49.948;11.574;2022-11-20T10:32:54;5.50;67.80
8103;DHT22;4094;49.948;11.574;2022-11-20T10:35:37;5.50;67.80
8103;DHT22;4094;49.948;11.574;2022-11-20T10:38:12;5.50;68.00
8103;DHT22;4094;49.948;11.574;2022-11-20T10:40:46;5.50;68.10
8103;DHT22;4094;49.948;11.574;2022-11-20T10:43:21;5.50;68.10
8103;DHT22;4094;49.948;11.574;2022-11-20T10:45:57;5.60;68.20
8103;DHT22;4094;49.948;11.574;2022-11-20T10:48:28;5.60;68.30
8103;DHT22;4094;49.948;11.574;2022-11-20T10:51:13;5.60;68.30
8103;DHT22;4094;49.948;11.574;2022-11-20T10:53:55;5.70;68.60
8103;DHT22;4094;49.948;11.574;2022-11-20T10:56:33;5.70;68.60
8103;DHT22;4094;49.948;11.574;2022-11-20T10:59:19;5.70;68.60
8103;DHT22;4094;49.948;11.574;2022-11-20T11:01:53;5.80;68.60
8103;DHT22;4094;49.948;11.574;2022-11-20T11:04:35;5.80;68.40
8103;DHT22;4094;49.948;11.574;2022-11-20T11:07:12;5.80;68.30
8103;DHT22;4094;49.948;11.574;2022-11-20T11:09:44;5.90;68.30
8103;DHT22;4094;49.948;11.574;2022-11-20T11:12:15;5.90;68.30
8103;DHT22;4094;49.948;11.574;2022-11-20T11:14:46;5.90;68.40
8103;DHT22;4094;49.948;11.574;2022-11-20T11:17:25;5.90;68.50
8103;DHT22;4094;49.948;11.574;2022-11-20T11:20:04;6.00;68.60
8103;DHT22;4094;49.948;11.574;2022-11-20T11:22:43;6.00;68.70
8103;DHT22;4094;49.948;11.574;2022-11-20T11:25:35;6.00;68.60
8103;DHT22;4094;49.948;11.574;2022-11-20T11:28:24;6.10;68.60
8103;DHT22;4094;49.948;11.574;2022-11-20T11:30:55;6.10;68.50
8103;DHT22;4094;49.948;11.574;2022-11-20T11:33:26;6.10;68.40
8103;DHT22;4094;49.948;11.574;2022-11-20T11:35:59;6.10;68.40
8103;DHT22;4094;49.948;11.574;2022-11-20T11:38:34;6.10;68.40
8103;DHT22;4094;49.948;11.574;2022-11-20T11:41:05;6.20;68.50
8103;DHT22;4094;49.948;11.574;2022-11-20T11:43:36;6.20;68.50
8103;DHT22;4094;49.948;11.574;2022-11-20T11:46:39;6.20;68.50
8103;DHT22;4094;49.948;11.574;2022-11-20T11:49:16;6.20;68.70
8103;DHT22;4094;49.948;11.574;2022-11-20T11:52:00;6.20;68.60
8103;DHT22;4094;49.948;11.574;2022-11-20T11:54:35;6.20;68.70
8103;DHT22;4094;49.948;11.574;2022-11-20T11:57:12;6.20;68.80
8103;DHT22;4094;49.948;11.574;2022-11-20T11:59:51;6.30;68.90
8103;DHT22;4094;49.948;11.574;2022-11-20T12:02:31;6.30;68.70
8103;DHT22;4094;49.948;11.574;2022-11-20T12:05:09;6.30;68.70
8103;DHT22;4094;49.948;11.574;2022-11-20T12:07:43;6.40;69.00
8103;DHT22;4094;49.948;11.574;2022-11-20T12:10:20;6.40;68.90
8103;DHT22;4094;49.948;11.574;2022-11-20T12:12:54;6.40;68.90
8103;DHT22;4094;49.948;11.574;2022-11-20T12:15:30;6.50;69.00
8103;DHT22;4094;49.948;11.574;2022-11-20T12:18:00;6.50;68.90
8103;DHT22;4094;49.948;11.574;2022-11-20T12:20:35;6.50;68.60
8103;DHT22;4094;49.948;11.574;2022-11-20T12:23:14;6.50;68.70
8103;DHT22;4094;49.948;11.574;2022-11-20T12:25:49;6.50;68.60
8103;DHT22;4094;49.948;11.574;2022-11-20T12:28:29;6.50;68.70
8103;DHT22;4094;49.948;11.574;2022-11-20T12:31:18;6.60;68.80
8103;DHT22;4094;49.948;11.574;2022-11-20T12:34:11;6.60;68.50
8103;DHT22;4094;49.948;11.574;2022-11-20T12:36:47;6.50;68.40
8103;DHT22;4094;49.948;11.574;2022-11-20T12:39:34;6.50;68.60
8103;DHT22;4094;49.948;11.574;2022-11-20T12:42:31;6.50;68.90
8103;DHT22;4094;49.948;11.574;2022-11-20T12:45:45;6.50;69.20
8103;DHT22;4094;49.948;11.574;2022-11-20T12:48:31;6.60;69.30
8103;DHT22;4094;49.948;11.574;2022-11-20T12:51:25;6.60;69.20
8103;DHT22;4094;49.948;11.574;2022-11-20T12:54:15;6.70;69.30
8103;DHT22;4094;49.948;11.574;2022-11-20T12:56:54;6.70;69.40
8103;DHT22;4094;49.948;11.574;2022-11-20T12:59:48;6.70;69.50
8103;DHT22;4094;49.948;11.574;2022-11-20T13:02:25;6.70;69.40
8103;DHT22;4094;49.948;11.574;2022-11-20T13:05:18;6.80;69.40
8103;DHT22;4094;49.948;11.574;2022-11-20T13:07:52;6.80;69.30
8103;DHT22;4094;49.948;11.574;2022-11-20T13:10:27;6.80;70.00
8103;DHT22;4094;49.948;11.574;2022-11-20T13:13:03;6.80;69.10
8103;DHT22;4094;49.948;11.574;2022-11-20T13:15:44;6.80;69.20
8103;DHT22;4094;49.948;11.574;2022-11-20T13:18:17;6.80;69.40
8103;DHT22;4094;49.948;11.574;2022-11-20T13:20:47;6.80;69.40
8103;DHT22;4094;49.948;11.574;2022-11-20T13:23:24;6.80;69.50
8103;DHT22;4094;49.948;11.574;2022-11-20T13:26:05;6.80;69.40
8103;DHT22;4094;49.948;11.574;2022-11-20T13:28:36;6.80;69.40
8103;DHT22;4094;49.948;11.574;2022-11-20T13:31:21;6.80;69.50
8103;DHT22;4094;49.948;11.574;2022-11-20T13:33:54;6.80;69.80
8103;DHT22;4094;49.948;11.574;2022-11-20T13:36:26;6.90;69.80
8103;DHT22;4094;49.948;11.574;2022-11-20T13:38:56;6.90;69.70
8103;DHT22;4094;49.948;11.574;2022-11-20T13:41:28;6.90;69.70
8103;DHT22;4094;49.948;11.574;2022-11-20T13:44:05;6.90;69.70
8103;DHT22;4094;49.948;11.574;2022-11-20T13:46:39;6.90;69.50
8103;DHT22;4094;49.948;11.574;2022-11-20T13:49:17;7.00;69.60
8103;DHT22;4094;49.948;11.574;2022-11-20T13:51:48;7.00;69.50
8103;DHT22;4094;49.948;11.574;2022-11-20T13:54:43;7.00;69.40
8103;DHT22;4094;49.948;11.574;2022-11-20T13:57:36;7.00;69.30
8103;DHT22;4094;49.948;11.574;2022-11-20T14:00:12;7.00;69.10
8103;DHT22;4094;49.948;11.574;2022-11-20T14:02:50;7.00;68.90
8103;DHT22;4094;49.948;11.574;2022-11-20T14:05:23;7.00;68.90
8103;DHT22;4094;49.948;11.574;2022-11-20T14:07:52;7.00;69.00
8103;DHT22;4094;49.948;11.574;2022-11-20T14:10:26;7.00;69.00
8103;DHT22;4094;49.948;11.574;2022-11-20T14:13:10;7.00;69.00
8103;DHT22;4094;49.948;11.574;2022-11-20T14:15:39;7.00;69.00
8103;DHT22;4094;49.948;11.574;2022-11-20T14:18:19;6.90;68.70
8103;DHT22;4094;49.948;11.574;2022-11-20T14:20:50;6.90;68.70
8103;DHT22;4094;49.948;11.574;2022-11-20T14:23:24;6.90;68.70
8103;DHT22;4094;49.948;11.574;2022-11-20T14:25:57;6.90;68.90
8103;DHT22;4094;49.948;11.574;2022-11-20T14:28:27;6.90;68.90
8103;DHT22;4094;49.948;11.574;2022-11-20T14:31:00;6.90;68.90
8103;DHT22;4094;49.948;11.574;2022-11-20T14:33:32;6.90;68.90
8103;DHT22;4094;49.948;11.574;2022-11-20T14:36:04;6.90;68.80
8103;DHT22;4094;49.948;11.574;2022-11-20T14:38:33;6.90;68.90
8103;DHT22;4094;49.948;11.574;2022-11-20T14:41:06;6.80;68.80
8103;DHT22;4094;49.948;11.574;2022-11-20T14:43:36;6.90;69.10
8103;DHT22;4094;49.948;11.574;2022-11-20T14:46:10;6.80;69.00
8103;DHT22;4094;49.948;11.574;2022-11-20T14:48:43;6.80;69.10
8103;DHT22;4094;49.948;11.574;2022-11-20T14:51:24;6.80;69.20
8103;DHT22;4094;49.948;11.574;2022-11-20T14:53:55;6.90;69.40
8103;DHT22;4094;49.948;11.574;2022-11-20T14:56:24;6.90;69.20
8103;DHT22;4094;49.948;11.574;2022-11-20T14:58:57;6.90;69.10
8103;DHT22;4094;49.948;11.574;2022-11-20T15:01:27;6.80;69.10
8103;DHT22;4094;49.948;11.574;2022-11-20T15:04:05;6.90;69.00
8103;DHT22;4094;49.948;11.574;2022-11-20T15:06:36;6.90;69.00
8103;DHT22;4094;49.948;11.574;2022-11-20T15:09:14;6.80;68.90
8103;DHT22;4094;49.948;11.574;2022-11-20T15:11:53;6.90;69.00
8103;DHT22;4094;49.948;11.574;2022-11-20T15:14:23;6.80;68.80
8103;DHT22;4094;49.948;11.574;2022-11-20T15:16:53;6.80;68.80
8103;DHT22;4094;49.948;11.574;2022-11-20T15:19:25;6.80;68.90
8103;DHT22;4094;49.948;11.574;2022-11-20T15:21:55;6.80;68.90
8103;DHT22;4094;49.948;11.574;2022-11-20T15:24:25;6.80;68.80
8103;DHT22;4094;49.948;11.574;2022-11-20T15:26:54;6.80;68.90
8103;DHT22;4094;49.948;11.574;2022-11-20T15:29:26;6.80;68.80
8103;DHT22;4094;49.948;11.574;2022-11-20T15:31:57;6.80;68.90
8103;DHT22;4094;49.948;11.574;2022-11-20T15:34:27;6.80;68.80
8103;DHT22;4094;49.948;11.574;2022-11-20T15:36:59;6.80;68.90
8103;DHT22;4094;49.948;11.574;2022-11-20T15:39:29;6.80;69.00
8103;DHT22;4094;49.948;11.574;2022-11-20T15:41:58;6.80;69.10
8103;DHT22;4094;49.948;11.574;2022-11-20T15:44:28;6.70;69.00
8103;DHT22;4094;49.948;11.574;2022-11-20T15:46:57;6.80;69.00
8103;DHT22;4094;49.948;11.574;2022-11-20T15:49:28;6.70;69.00
8103;DHT22;4094;49.948;11.574;2022-11-20T15:51:57;6.70;69.00
8103;DHT22;4094;49.948;11.574;2022-11-20T15:54:26;6.70;69.00
8103;DHT22;4094;49.948;11.574;2022-11-20T15:56:55;6.70;69.80
8103;DHT22;4094;49.948;11.574;2022-11-20T15:59:24;6.70;69.10
8103;DHT22;4094;49.948;11.574;2022-11-20T16:01:53;6.60;69.10
8103;DHT22;4094;49.948;11.574;2022-11-20T16:04:22;6.60;69.30
8103;DHT22;4094;49.948;11.574;2022-11-20T16:06:53;6.60;69.40
8103;DHT22;4094;49.948;11.574;2022-11-20T16:09:22;6.60;69.40
8103;DHT22;4094;49.948;11.574;2022-11-20T16:11:51;6.60;69.40
8103;DHT22;4094;49.948;11.574;2022-11-20T16:14:21;6.60;69.40
8103;DHT22;4094;49.948;11.574;2022-11-20T16:17:09;6.60;69.40
8103;DHT22;4094;49.948;11.574;2022-11-20T16:19:38;6.60;69.40
8103;DHT22;4094;49.948;11.574;2022-11-20T16:22:10;6.60;69.50
8103;DHT22;4094;49.948;11.574;2022-11-20T16:24:40;6.60;69.50
8103;DHT22;4094;49.948;11.574;2022-11-20T16:27:09;6.60;69.60
8103;DHT22;4094;49.948;11.574;2022-11-20T16:29:38;6.60;69.50
8103;DHT22;4094;49.948;11.574;2022-11-20T16:32:07;6.60;69.60
8103;DHT22;4094;49.948;11.574;2022-11-20T16:34:37;6.60;69.50
8103;DHT22;4094;49.948;11.574;2022-11-20T16:37:08;6.60;69.40
8103;DHT22;4094;49.948;11.574;2022-11-20T16:39:37;6.60;69.40